createdAt,value
2022-12-14T00:05:23.152Z,-4.8387580999163875
2022-12-14T00:15:26.745Z,-5.011465301003345
2022-12-14T00:28:32.187Z,-5.200437003553512
2022-12-14T00:34:54.475Z,-5.2186141304347835
2022-12-14T00:45:33.482Z,-5.246656171613713
2022-12-14T00:51:56.200Z,-5.368553381061873
2022-12-14T00:58:18.683Z,-5.128915395066889
2022-12-14T01:04:40.906Z,-5.18412612353679
2022-12-14T01:13:11.434Z,-5.168800297867893
2022-12-14T01:32:16.614Z,-4.9651109165969896
2022-12-14T01:38:39.271Z,-5.344515572742474
2022-12-14T01:45:04.536Z,-5.342397836538462
2022-12-14T01:53:50.347Z,-5.043977973453177
2022-12-14T02:02:46.726Z,-5.1618578856605355
2022-12-14T02:15:36.572Z,-5.31813466764214
2022-12-14T02:21:56.035Z,-5.270878187709029
2022-12-14T02:44:07.087Z,-5.9587093697742475
2022-12-14T02:59:22.377Z,-5.728896451714047
2022-12-14T03:07:26.187Z,-6.020388273411371
2022-12-14T03:13:47.269Z,-5.918109192098662
2022-12-14T03:24:44.769Z,-5.683534307065217
2022-12-14T03:31:06.006Z,-5.827340483904682
2022-12-14T03:37:26.735Z,-5.945737745610368
2022-12-14T03:43:49.891Z,-5.800889031145485
2022-12-14T03:58:57.388Z,-5.851279002926422
2022-12-14T04:06:42.731Z,-6.020469272575251
2022-12-14T04:13:04.853Z,-6.040671378553511
2022-12-14T04:19:26.909Z,-6.0226360002090304
2022-12-14T04:30:35.903Z,-6.176267244983277
2022-12-14T04:41:07.851Z,-6.238095735785953
2022-12-14T04:47:32.173Z,-6.0054001619983275
2022-12-14T04:58:19.373Z,-6.109759746028428
2022-12-14T05:08:01.653Z,-5.8713452393394645
2022-12-14T05:17:18.208Z,-5.750123458403009
2022-12-14T05:23:38.795Z,-5.930002351588629
2022-12-14T05:30:00.016Z,-6.068501123536789
2022-12-14T05:39:15.172Z,-5.904540525710702
2022-12-14T05:45:41.558Z,-5.765713184573578
2022-12-14T05:52:03.270Z,-5.845174670777592
2022-12-14T05:58:25.671Z,-5.811466607441472
2022-12-14T06:09:24.975Z,-5.738849550585284
2022-12-14T06:15:47.078Z,-5.7985714099080266
2022-12-14T06:25:54.759Z,-5.797003684155518
2022-12-14T06:32:21.028Z,-5.676774796195652
2022-12-14T06:38:44.874Z,-5.766996106814381
2022-12-14T06:45:06.829Z,-5.772230351170569
2022-12-14T06:51:28.481Z,-5.631251959657191
2022-12-14T07:11:56.075Z,-5.666923599498328
2022-12-14T07:18:19.320Z,-5.757432326505017
2022-12-14T07:24:43.962Z,-5.775614025919732
2022-12-14T07:31:08.303Z,-5.749325224707357
2022-12-14T07:45:37.312Z,-5.633701531145485
2022-12-14T07:51:59.454Z,-5.603238660117056
2022-12-14T08:03:11.013Z,-5.550715928093646
2022-12-14T08:12:56.576Z,-5.682519857859532
2022-12-14T08:19:18.086Z,-5.670680262332777
2022-12-14T08:25:41.285Z,-5.629338681020067
2022-12-14T08:32:03.000Z,-5.531225177675585
2022-12-14T08:38:25.964Z,-5.4105945599916385
2022-12-14T08:44:48.211Z,-5.507856918896321
2022-12-14T08:57:01.033Z,-5.2323363033026755
2022-12-14T09:13:09.148Z,-5.117240410744147
2022-12-14T09:20:49.026Z,-5.3808397784280935
2022-12-14T09:27:12.701Z,-5.2040388534699
2022-12-14T09:37:47.957Z,-4.855866560409699
2022-12-14T09:48:08.301Z,-4.846058476170569
2022-12-14T09:54:30.878Z,-4.838316523829431
2022-12-14T10:04:32.406Z,-4.516054164924749
2022-12-14T10:10:55.117Z,-4.524299095944816
2022-12-14T10:20:15.871Z,-4.487049278846154
2022-12-14T10:26:37.836Z,-4.216177623327759
2022-12-14T10:32:59.461Z,-4.0321122491638794
2022-12-14T10:40:41.393Z,-3.8866749843227426
2022-12-14T10:47:02.608Z,-3.7331867945234114
2022-12-14T10:53:24.037Z,-3.48094951923077
2022-12-14T11:00:03.374Z,-3.4636953908862873
2022-12-14T11:06:51.577Z,-3.3398914349916393
2022-12-14T11:13:13.220Z,-3.2326714046822738
2022-12-14T11:19:34.804Z,-3.1688780309364546
2022-12-14T11:29:49.556Z,-3.0007244199414718
2022-12-14T11:36:11.755Z,-3.070484949832776
2022-12-14T11:42:33.169Z,-3.0185363973662205
2022-12-14T11:55:26.198Z,-2.7989607284698996
2022-12-14T12:01:51.192Z,-2.868194110576923
2022-12-14T12:08:12.684Z,-2.739441367056856
2022-12-14T12:14:34.513Z,-2.705309364548495
2022-12-14T12:24:21.944Z,-2.6102424749163884
2022-12-14T12:30:42.967Z,-2.6935403166806022
2022-12-14T12:37:26.407Z,-2.6216326557274248
2022-12-14T12:47:06.812Z,-2.579642427884615
2022-12-14T12:55:48.988Z,-2.5212224341555185
2022-12-14T13:03:33.152Z,-2.57445652173913
2022-12-14T13:09:54.950Z,-2.6115854933110367
2022-12-14T13:16:18.618Z,-2.577034777382943
2022-12-14T13:24:39.406Z,-2.5153839621655516
2022-12-14T13:44:37.458Z,-2.6355821488294313
2022-12-14T13:51:05.853Z,-2.6226320808946486
2022-12-14T14:00:24.077Z,-2.577850647993311
2022-12-14T14:06:45.485Z,-2.5574166492474917
2022-12-14T14:17:16.164Z,-2.4990247439381266
2022-12-14T14:30:31.498Z,-2.943486752717391
2022-12-14T14:36:53.466Z,-3.054991900083612
2022-12-14T14:43:16.722Z,-3.0560677518812707
2022-12-14T14:49:38.629Z,-2.8648947010869565
2022-12-14T14:55:58.519Z,-2.9975830894648827
2022-12-14T15:03:46.679Z,-3.029238085284281
2022-12-14T15:10:08.784Z,-3.1604214569397993
2022-12-14T15:16:31.728Z,-3.383599628971572
2022-12-14T15:22:53.395Z,-3.5323310775501673
2022-12-14T15:29:17.582Z,-3.6071880225752504
2022-12-14T15:36:27.718Z,-3.7362804400083607
2022-12-14T15:46:17.683Z,-3.87297502090301
2022-12-14T15:56:11.970Z,-4.011171352424749
2022-12-14T16:02:33.447Z,-4.0660972773829425
2022-12-14T16:08:55.359Z,-4.143288827341137
2022-12-14T16:15:17.522Z,-4.183101222826087
2022-12-14T16:21:55.162Z,-4.182432979724081
2022-12-14T16:28:21.639Z,-4.113452393394649
2022-12-14T16:36:02.259Z,-3.9710186298076926
2022-12-14T16:48:06.364Z,-4.150425245610368
2022-12-14T16:56:49.413Z,-4.262328203386288
2022-12-14T17:03:09.555Z,-4.115799409489966
2022-12-14T17:20:42.285Z,-4.245311846780936
2022-12-14T17:27:01.989Z,-4.374197846989967
2022-12-14T17:33:24.009Z,-4.503716816471572
2022-12-14T17:42:36.452Z,-4.562605821488294
2022-12-14T17:49:01.496Z,-4.546846911580268
2022-12-14T17:55:26.840Z,-4.539957410117057
2022-12-14T18:02:55.937Z,-4.361870950041807
2022-12-14T18:09:15.698Z,-4.3852379023829435
2022-12-14T18:21:51.884Z,-4.566298468854515
2022-12-14T18:28:14.848Z,-4.429145981396321
2022-12-14T18:34:34.169Z,-4.480698683110369
2022-12-14T18:44:35.955Z,-4.65229214569398
2022-12-14T18:50:56.790Z,-4.617922371446488
2022-12-14T19:08:34.575Z,-4.71977620714883
2022-12-14T19:14:56.654Z,-4.8230592861622075
2022-12-14T19:21:20.842Z,-4.817472303511705
2022-12-14T19:28:25.825Z,-4.825413487667224
2022-12-14T19:38:59.476Z,-4.941145615593645
2022-12-14T19:45:22.519Z,-4.920420281145486
2022-12-14T19:58:24.688Z,-4.944686062918061
2022-12-14T20:07:20.996Z,-5.126035352215719
2022-12-14T20:18:16.729Z,-5.19894243833612
2022-12-14T20:24:39.826Z,-5.285564511914716
2022-12-14T20:35:16.517Z,-5.172795385660535
2022-12-14T20:41:39.375Z,-5.24696710388796
2022-12-14T20:48:22.688Z,-5.183552597198997
2022-12-14T20:54:47.694Z,-5.250345552884616
2022-12-14T21:05:39.936Z,-5.274267088210703
2022-12-14T21:14:22.623Z,-5.170863816889632
2022-12-14T21:24:31.022Z,-5.526075198578596
2022-12-14T21:31:33.461Z,-5.345108695652174
2022-12-14T21:37:55.451Z,-5.272560226797658
2022-12-14T21:44:18.669Z,-5.41315779159699
2022-12-14T22:03:17.658Z,-5.403383674749164
2022-12-14T22:09:40.598Z,-5.346119225543478
2022-12-14T22:16:01.852Z,-5.359615384615385
2022-12-14T22:22:23.233Z,-5.25152200041806
2022-12-14T22:28:44.550Z,-5.371986047240802
2022-12-14T22:35:06.611Z,-5.382689041596991
2022-12-14T22:47:13.963Z,-5.529212609740802
2022-12-14T22:57:59.557Z,-5.571179974916388
2022-12-14T23:04:23.570Z,-5.456611230142141
2022-12-14T23:10:44.352Z,-5.322750313545151
2022-12-14T23:17:12.753Z,-5.1240299696906355
2022-12-14T23:23:35.964Z,-5.043670307274247
2022-12-14T23:32:23.413Z,-5.128803694607024
2022-12-14T23:43:38.825Z,-5.094313074832776
